sensor_id;sensor_type;location;lat;lon;timestamp;pressure;altitude;pressure_sealevel;temperature;humidity
76660;BME280;65579;45.534;6.212;2023-03-14T00:01:19;97466.75;;;11.34;53.86
76660;BME280;65579;45.534;6.212;2023-03-14T00:03:44;97457.21;;;12.16;50.53
76660;BME280;65579;45.534;6.212;2023-03-14T00:06:09;97416.46;;;11.97;52.81
76660;BME280;65579;45.534;6.212;2023-03-14T00:08:34;97418.63;;;11.28;50.82
76660;BME280;65579;45.534;6.212;2023-03-14T00:11:04;97418.87;;;11.46;51.73
76660;BME280;65579;45.534;6.212;2023-03-14T00:13:24;97443.17;;;11.82;51.10
76660;BME280;65579;45.534;6.212;2023-03-14T00:15:50;97419.16;;;12.08;51.24
76660;BME280;65579;45.534;6.212;2023-03-14T00:18:14;97402.30;;;12.46;50.69
76660;BME280;65579;45.534;6.212;2023-03-14T00:20:40;97411.62;;;12.48;49.36
76660;BME280;65579;45.534;6.212;2023-03-14T00:23:05;97406.84;;;12.16;46.34
76660;BME280;65579;45.534;6.212;2023-03-14T00:25:30;97403.59;;;12.31;48.69
76660;BME280;65579;45.534;6.212;2023-03-14T00:27:55;97415.17;;;11.88;49.04
76660;BME280;65579;45.534;6.212;2023-03-14T00:30:20;97425.74;;;10.81;54.13
76660;BME280;65579;45.534;6.212;2023-03-14T00:32:46;97424.38;;;11.53;52.68
76660;BME280;65579;45.534;6.212;2023-03-14T00:35:11;97422.38;;;11.33;53.15
76660;BME280;65579;45.534;6.212;2023-03-14T00:37:36;97420.97;;;10.72;52.97
76660;BME280;65579;45.534;6.212;2023-03-14T00:40:01;97418.77;;;10.80;52.00
76660;BME280;65579;45.534;6.212;2023-03-14T00:42:26;97421.46;;;11.17;53.16
76660;BME280;65579;45.534;6.212;2023-03-14T00:44:52;97424.55;;;12.26;50.72
76660;BME280;65579;45.534;6.212;2023-03-14T00:47:17;97435.19;;;12.59;49.18
76660;BME280;65579;45.534;6.212;2023-03-14T00:49:42;97434.66;;;12.18;50.41
76660;BME280;65579;45.534;6.212;2023-03-14T00:52:07;97426.08;;;12.52;49.80
76660;BME280;65579;45.534;6.212;2023-03-14T00:54:33;97423.78;;;12.22;49.26
76660;BME280;65579;45.534;6.212;2023-03-14T00:56:58;97421.26;;;12.51;49.60
76660;BME280;65579;45.534;6.212;2023-03-14T00:59:23;97417.60;;;12.24;49.90
76660;BME280;65579;45.534;6.212;2023-03-14T01:01:48;97408.95;;;12.41;49.64
76660;BME280;65579;45.534;6.212;2023-03-14T01:04:13;97414.50;;;12.01;50.09
76660;BME280;65579;45.534;6.212;2023-03-14T01:06:39;97422.37;;;12.30;49.63
76660;BME280;65579;45.534;6.212;2023-03-14T01:09:03;97419.54;;;11.99;50.28
76660;BME280;65579;45.534;6.212;2023-03-14T01:11:31;97426.05;;;12.07;50.13
76660;BME280;65579;45.534;6.212;2023-03-14T01:13:55;97435.98;;;11.96;50.23
76660;BME280;65579;45.534;6.212;2023-03-14T01:16:21;97453.41;;;12.37;49.31
76660;BME280;65579;45.534;6.212;2023-03-14T01:18:46;97480.65;;;11.72;50.42
76660;BME280;65579;45.534;6.212;2023-03-14T01:21:12;97498.05;;;11.50;51.63
76660;BME280;65579;45.534;6.212;2023-03-14T01:23:35;97483.41;;;11.86;51.39
76660;BME280;65579;45.534;6.212;2023-03-14T01:26:01;97465.91;;;11.92;51.23
76660;BME280;65579;45.534;6.212;2023-03-14T01:28:26;97458.73;;;11.85;50.52
76660;BME280;65579;45.534;6.212;2023-03-14T01:30:51;97439.05;;;11.47;50.18
76660;BME280;65579;45.534;6.212;2023-03-14T01:33:16;97435.99;;;12.00;49.30
76660;BME280;65579;45.534;6.212;2023-03-14T01:35:41;97438.24;;;11.55;50.00
76660;BME280;65579;45.534;6.212;2023-03-14T01:38:06;97432.03;;;11.98;49.96
76660;BME280;65579;45.534;6.212;2023-03-14T01:40:32;97428.67;;;9.37;58.95
76660;BME280;65579;45.534;6.212;2023-03-14T01:43:00;97428.18;;;9.24;61.48
76660;BME280;65579;45.534;6.212;2023-03-14T01:47:52;97458.78;;;10.23;56.49
76660;BME280;65579;45.534;6.212;2023-03-14T01:50:13;97466.58;;;10.60;55.06
76660;BME280;65579;45.534;6.212;2023-03-14T01:52:40;97472.83;;;10.74;53.23
76660;BME280;65579;45.534;6.212;2023-03-14T01:55:06;97467.21;;;11.26;52.45
76660;BME280;65579;45.534;6.212;2023-03-14T01:57:31;97460.34;;;11.83;50.98
76660;BME280;65579;45.534;6.212;2023-03-14T01:59:58;97459.32;;;11.67;50.74
76660;BME280;65579;45.534;6.212;2023-03-14T02:02:19;97457.27;;;11.33;51.38
76660;BME280;65579;45.534;6.212;2023-03-14T02:04:45;97442.30;;;11.35;50.89
76660;BME280;65579;45.534;6.212;2023-03-14T02:07:13;97431.15;;;10.74;51.65
76660;BME280;65579;45.534;6.212;2023-03-14T02:09:35;97428.36;;;10.91;53.49
76660;BME280;65579;45.534;6.212;2023-03-14T02:12:00;97430.06;;;8.61;60.61
76660;BME280;65579;45.534;6.212;2023-03-14T02:14:30;97429.37;;;7.81;64.92
76660;BME280;65579;45.534;6.212;2023-03-14T02:16:51;97430.95;;;8.15;63.35
76660;BME280;65579;45.534;6.212;2023-03-14T02:19:18;97445.47;;;9.10;59.61
76660;BME280;65579;45.534;6.212;2023-03-14T02:21:49;97451.70;;;10.21;55.70
76660;BME280;65579;45.534;6.212;2023-03-14T02:24:12;97450.87;;;11.02;53.16
76660;BME280;65579;45.534;6.212;2023-03-14T02:26:37;97444.01;;;11.28;52.51
76660;BME280;65579;45.534;6.212;2023-03-14T02:28:57;97435.22;;;10.27;54.77
76660;BME280;65579;45.534;6.212;2023-03-14T02:31:22;97432.90;;;9.51;57.55
76660;BME280;65579;45.534;6.212;2023-03-14T02:33:47;97421.45;;;9.01;59.46
76660;BME280;65579;45.534;6.212;2023-03-14T02:36:14;97386.69;;;9.59;57.80
76660;BME280;65579;45.534;6.212;2023-03-14T02:38:43;97346.66;;;9.87;56.36
76660;BME280;65579;45.534;6.212;2023-03-14T02:41:03;97341.25;;;8.68;59.77
76660;BME280;65579;45.534;6.212;2023-03-14T02:43:28;97358.74;;;8.08;61.72
76660;BME280;65579;45.534;6.212;2023-03-14T02:45:54;97364.50;;;8.60;59.76
76660;BME280;65579;45.534;6.212;2023-03-14T02:48:21;97357.26;;;8.65;59.52
76660;BME280;65579;45.534;6.212;2023-03-14T02:50:47;97357.69;;;9.10;57.92
76660;BME280;65579;45.534;6.212;2023-03-14T02:53:15;97359.16;;;9.31;57.55
76660;BME280;65579;45.534;6.212;2023-03-14T02:55:35;97360.47;;;9.25;57.18
76660;BME280;65579;45.534;6.212;2023-03-14T02:58:00;97359.08;;;10.11;54.25
76660;BME280;65579;45.534;6.212;2023-03-14T03:00:25;97347.39;;;10.88;51.91
76660;BME280;65579;45.534;6.212;2023-03-14T03:02:55;97336.88;;;11.07;51.19
76660;BME280;65579;45.534;6.212;2023-03-14T03:05:16;97338.27;;;11.04;51.26
76660;BME280;65579;45.534;6.212;2023-03-14T03:07:41;97341.44;;;10.72;51.72
76660;BME280;65579;45.534;6.212;2023-03-14T03:10:07;97341.82;;;10.66;52.25
76660;BME280;65579;45.534;6.212;2023-03-14T03:14:57;97328.17;;;10.62;52.20
76660;BME280;65579;45.534;6.212;2023-03-14T03:17:22;97324.52;;;10.98;51.35
76660;BME280;65579;45.534;6.212;2023-03-14T03:19:47;97327.69;;;10.69;52.10
76660;BME280;65579;45.534;6.212;2023-03-14T03:22:12;97333.04;;;9.54;55.60
76660;BME280;65579;45.534;6.212;2023-03-14T03:24:38;97332.38;;;9.47;56.23
76660;BME280;65579;45.534;6.212;2023-03-14T03:27:03;97327.77;;;9.71;55.50
76660;BME280;65579;45.534;6.212;2023-03-14T03:29:28;97323.12;;;9.88;54.57
76660;BME280;65579;45.534;6.212;2023-03-14T03:31:54;97314.33;;;9.72;54.79
76660;BME280;65579;45.534;6.212;2023-03-14T03:34:19;97306.65;;;9.66;55.08
76660;BME280;65579;45.534;6.212;2023-03-14T03:36:45;97303.27;;;9.39;55.44
76660;BME280;65579;45.534;6.212;2023-03-14T03:39:10;97296.88;;;9.08;57.53
76660;BME280;65579;45.534;6.212;2023-03-14T03:41:35;97295.72;;;8.50;59.39
76660;BME280;65579;45.534;6.212;2023-03-14T03:44:00;97291.68;;;8.59;58.65
76660;BME280;65579;45.534;6.212;2023-03-14T03:46:26;97288.40;;;9.07;57.05
76660;BME280;65579;45.534;6.212;2023-03-14T03:48:55;97290.42;;;8.97;56.03
76660;BME280;65579;45.534;6.212;2023-03-14T03:51:16;97287.87;;;9.70;54.88
76660;BME280;65579;45.534;6.212;2023-03-14T03:53:42;97280.35;;;9.95;53.44
76660;BME280;65579;45.534;6.212;2023-03-14T03:56:08;97270.73;;;10.74;52.09
76660;BME280;65579;45.534;6.212;2023-03-14T03:58:32;97269.29;;;10.06;52.82
76660;BME280;65579;45.534;6.212;2023-03-14T04:00:58;97265.54;;;9.56;53.64
76660;BME280;65579;45.534;6.212;2023-03-14T04:03:24;97255.44;;;9.06;55.29
76660;BME280;65579;45.534;6.212;2023-03-14T04:05:59;97256.65;;;8.04;58.89
76660;BME280;65579;45.534;6.212;2023-03-14T04:08:14;97258.51;;;8.87;56.10
76660;BME280;65579;45.534;6.212;2023-03-14T04:10:39;97259.49;;;9.48;54.07
76660;BME280;65579;45.534;6.212;2023-03-14T04:13:05;97257.48;;;9.60;53.63
76660;BME280;65579;45.534;6.212;2023-03-14T04:15:30;97255.16;;;9.46;53.09
76660;BME280;65579;45.534;6.212;2023-03-14T04:17:57;97253.60;;;10.20;51.51
76660;BME280;65579;45.534;6.212;2023-03-14T04:20:21;97247.65;;;10.13;51.49
76660;BME280;65579;45.534;6.212;2023-03-14T04:22:46;97247.65;;;10.32;51.93
76660;BME280;65579;45.534;6.212;2023-03-14T04:25:11;97242.87;;;10.16;51.61
76660;BME280;65579;45.534;6.212;2023-03-14T04:27:37;97234.46;;;10.49;49.98
76660;BME280;65579;45.534;6.212;2023-03-14T04:30:02;97229.99;;;10.50;51.05
76660;BME280;65579;45.534;6.212;2023-03-14T04:32:27;97217.99;;;10.66;50.41
76660;BME280;65579;45.534;6.212;2023-03-14T04:34:52;97212.74;;;10.71;51.04
76660;BME280;65579;45.534;6.212;2023-03-14T04:37:17;97206.39;;;9.67;52.49
76660;BME280;65579;45.534;6.212;2023-03-14T04:39:43;97192.58;;;10.35;51.61
76660;BME280;65579;45.534;6.212;2023-03-14T04:42:08;97181.56;;;9.54;52.97
76660;BME280;65579;45.534;6.212;2023-03-14T04:44:33;97172.58;;;10.79;51.29
76660;BME280;65579;45.534;6.212;2023-03-14T04:46:59;97172.33;;;9.71;52.81
76660;BME280;65579;45.534;6.212;2023-03-14T04:49:24;97174.66;;;10.19;52.28
76660;BME280;65579;45.534;6.212;2023-03-14T04:51:50;97181.50;;;9.98;52.84
76660;BME280;65579;45.534;6.212;2023-03-14T04:54:14;97177.63;;;9.81;52.54
76660;BME280;65579;45.534;6.212;2023-03-14T04:56:40;97173.40;;;9.86;52.34
76660;BME280;65579;45.534;6.212;2023-03-14T04:59:05;97174.94;;;10.41;51.57
76660;BME280;65579;45.534;6.212;2023-03-14T05:01:30;97168.97;;;9.86;53.08
76660;BME280;65579;45.534;6.212;2023-03-14T05:03:56;97158.43;;;8.75;55.23
76660;BME280;65579;45.534;6.212;2023-03-14T05:06:21;97146.23;;;9.42;53.53
76660;BME280;65579;45.534;6.212;2023-03-14T05:08:46;97140.68;;;9.49;53.61
76660;BME280;65579;45.534;6.212;2023-03-14T05:11:11;97146.25;;;9.40;53.44
76660;BME280;65579;45.534;6.212;2023-03-14T05:13:37;97149.03;;;9.14;54.46
76660;BME280;65579;45.534;6.212;2023-03-14T05:16:04;97155.79;;;8.83;55.54
76660;BME280;65579;45.534;6.212;2023-03-14T05:18:27;97163.11;;;8.63;56.67
76660;BME280;65579;45.534;6.212;2023-03-14T05:20:53;97175.87;;;7.34;61.25
76660;BME280;65579;45.534;6.212;2023-03-14T05:23:18;97170.65;;;8.02;59.84
76660;BME280;65579;45.534;6.212;2023-03-14T05:25:43;97164.12;;;7.83;59.54
76660;BME280;65579;45.534;6.212;2023-03-14T05:28:08;97169.62;;;9.15;57.17
76660;BME280;65579;45.534;6.212;2023-03-14T05:30:34;97173.66;;;9.34;56.56
76660;BME280;65579;45.534;6.212;2023-03-14T05:32:59;97169.32;;;9.92;54.33
76660;BME280;65579;45.534;6.212;2023-03-14T05:35:24;97164.34;;;9.73;54.46
76660;BME280;65579;45.534;6.212;2023-03-14T05:37:50;97157.11;;;9.92;53.64
76660;BME280;65579;45.534;6.212;2023-03-14T05:40:15;97154.13;;;9.87;52.88
76660;BME280;65579;45.534;6.212;2023-03-14T05:42:40;97149.45;;;9.92;53.02
76660;BME280;65579;45.534;6.212;2023-03-14T05:45:07;97147.42;;;10.00;51.64
76660;BME280;65579;45.534;6.212;2023-03-14T05:47:31;97151.29;;;10.42;51.11
76660;BME280;65579;45.534;6.212;2023-03-14T05:49:56;97153.67;;;10.53;51.68
76660;BME280;65579;45.534;6.212;2023-03-14T05:52:22;97159.03;;;10.54;52.26
76660;BME280;65579;45.534;6.212;2023-03-14T05:54:47;97159.17;;;10.23;51.40
76660;BME280;65579;45.534;6.212;2023-03-14T05:57:12;97164.13;;;9.62;52.63
76660;BME280;65579;45.534;6.212;2023-03-14T05:59:38;97169.64;;;10.25;52.63
76660;BME280;65579;45.534;6.212;2023-03-14T06:02:03;97169.45;;;9.89;51.65
76660;BME280;65579;45.534;6.212;2023-03-14T06:04:28;97169.18;;;10.17;52.24
76660;BME280;65579;45.534;6.212;2023-03-14T06:06:53;97172.46;;;9.98;53.30
76660;BME280;65579;45.534;6.212;2023-03-14T06:09:18;97176.40;;;10.00;52.40
76660;BME280;65579;45.534;6.212;2023-03-14T06:11:44;97181.27;;;10.15;52.12
76660;BME280;65579;45.534;6.212;2023-03-14T06:14:09;97180.58;;;9.98;52.23
76660;BME280;65579;45.534;6.212;2023-03-14T06:16:34;97181.13;;;10.49;52.53
76660;BME280;65579;45.534;6.212;2023-03-14T06:19:00;97180.04;;;10.15;52.44
76660;BME280;65579;45.534;6.212;2023-03-14T06:21:25;97180.98;;;10.86;50.84
76660;BME280;65579;45.534;6.212;2023-03-14T06:23:50;97181.48;;;10.28;51.58
76660;BME280;65579;45.534;6.212;2023-03-14T06:26:16;97178.86;;;10.23;51.95
76660;BME280;65579;45.534;6.212;2023-03-14T06:28:41;97179.10;;;10.31;53.22
76660;BME280;65579;45.534;6.212;2023-03-14T06:31:06;97178.06;;;9.61;53.32
76660;BME280;65579;45.534;6.212;2023-03-14T06:33:31;97179.01;;;9.82;53.96
76660;BME280;65579;45.534;6.212;2023-03-14T06:35:57;97184.39;;;9.55;53.37
76660;BME280;65579;45.534;6.212;2023-03-14T06:38:22;97184.33;;;9.54;53.80
76660;BME280;65579;45.534;6.212;2023-03-14T06:40:48;97193.09;;;9.40;55.78
76660;BME280;65579;45.534;6.212;2023-03-14T06:43:13;97198.95;;;8.68;56.80
76660;BME280;65579;45.534;6.212;2023-03-14T06:45:39;97207.30;;;9.43;55.56
76660;BME280;65579;45.534;6.212;2023-03-14T06:48:04;97210.82;;;9.43;55.25
76660;BME280;65579;45.534;6.212;2023-03-14T06:50:29;97208.50;;;9.49;55.39
76660;BME280;65579;45.534;6.212;2023-03-14T06:52:55;97210.48;;;9.39;54.76
76660;BME280;65579;45.534;6.212;2023-03-14T06:55:20;97213.92;;;8.87;56.20
76660;BME280;65579;45.534;6.212;2023-03-14T06:57:46;97221.85;;;9.95;53.32
76660;BME280;65579;45.534;6.212;2023-03-14T07:00:12;97225.77;;;10.08;52.75
76660;BME280;65579;45.534;6.212;2023-03-14T07:02:37;97222.79;;;10.24;53.34
76660;BME280;65579;45.534;6.212;2023-03-14T07:05:02;97220.84;;;9.73;53.76
76660;BME280;65579;45.534;6.212;2023-03-14T07:07:28;97226.62;;;9.84;55.53
76660;BME280;65579;45.534;6.212;2023-03-14T07:09:53;97238.67;;;9.71;55.80
76660;BME280;65579;45.534;6.212;2023-03-14T07:12:18;97242.43;;;9.66;54.56
76660;BME280;65579;45.534;6.212;2023-03-14T07:14:43;97241.43;;;10.16;53.72
76660;BME280;65579;45.534;6.212;2023-03-14T07:17:08;97243.30;;;9.86;53.53
76660;BME280;65579;45.534;6.212;2023-03-14T07:19:34;97248.84;;;9.97;54.26
76660;BME280;65579;45.534;6.212;2023-03-14T07:21:59;97249.38;;;10.17;52.86
76660;BME280;65579;45.534;6.212;2023-03-14T07:24:25;97250.20;;;10.42;52.18
76660;BME280;65579;45.534;6.212;2023-03-14T07:26:50;97250.53;;;10.08;52.19
76660;BME280;65579;45.534;6.212;2023-03-14T07:29:16;97254.06;;;9.66;53.82
76660;BME280;65579;45.534;6.212;2023-03-14T07:31:42;97256.94;;;9.64;54.09
76660;BME280;65579;45.534;6.212;2023-03-14T07:34:07;97254.76;;;9.73;52.49
76660;BME280;65579;45.534;6.212;2023-03-14T07:36:33;97264.26;;;9.85;53.41
76660;BME280;65579;45.534;6.212;2023-03-14T07:38:58;97263.97;;;9.27;54.60
76660;BME280;65579;45.534;6.212;2023-03-14T07:41:23;97265.71;;;9.29;54.86
76660;BME280;65579;45.534;6.212;2023-03-14T07:43:50;97267.81;;;9.77;54.47
76660;BME280;65579;45.534;6.212;2023-03-14T07:46:15;97267.60;;;9.69;54.89
76660;BME280;65579;45.534;6.212;2023-03-14T07:48:40;97270.92;;;9.52;54.73
76660;BME280;65579;45.534;6.212;2023-03-14T07:51:06;97274.10;;;9.19;55.52
76660;BME280;65579;45.534;6.212;2023-03-14T07:53:31;97276.99;;;9.53;55.00
76660;BME280;65579;45.534;6.212;2023-03-14T07:55:57;97278.24;;;9.18;54.21
76660;BME280;65579;45.534;6.212;2023-03-14T07:58:22;97278.72;;;9.47;53.33
76660;BME280;65579;45.534;6.212;2023-03-14T08:00:47;97282.69;;;9.04;53.87
76660;BME280;65579;45.534;6.212;2023-03-14T08:03:12;97285.68;;;10.39;50.81
76660;BME280;65579;45.534;6.212;2023-03-14T08:05:38;97291.36;;;9.63;54.08
76660;BME280;65579;45.534;6.212;2023-03-14T08:08:03;97294.56;;;9.59;53.20
76660;BME280;65579;45.534;6.212;2023-03-14T08:10:28;97298.39;;;9.76;52.60
76660;BME280;65579;45.534;6.212;2023-03-14T08:12:55;97304.05;;;10.42;51.44
76660;BME280;65579;45.534;6.212;2023-03-14T08:15:18;97310.20;;;10.58;50.92
76660;BME280;65579;45.534;6.212;2023-03-14T08:17:44;97315.40;;;9.78;50.80
76660;BME280;65579;45.534;6.212;2023-03-14T08:20:10;97313.92;;;10.25;50.94
76660;BME280;65579;45.534;6.212;2023-03-14T08:22:34;97316.61;;;10.40;50.25
76660;BME280;65579;45.534;6.212;2023-03-14T08:24:59;97321.80;;;10.22;51.31
76660;BME280;65579;45.534;6.212;2023-03-14T08:27:25;97320.92;;;9.70;51.95
76660;BME280;65579;45.534;6.212;2023-03-14T08:29:50;97322.71;;;10.25;51.03
76660;BME280;65579;45.534;6.212;2023-03-14T08:32:15;97330.97;;;10.21;51.34
76660;BME280;65579;45.534;6.212;2023-03-14T08:34:40;97339.17;;;10.19;50.31
76660;BME280;65579;45.534;6.212;2023-03-14T08:37:06;97347.31;;;9.79;50.79
76660;BME280;65579;45.534;6.212;2023-03-14T08:39:31;97351.60;;;10.02;50.77
76660;BME280;65579;45.534;6.212;2023-03-14T08:41:56;97360.53;;;10.13;50.16
76660;BME280;65579;45.534;6.212;2023-03-14T08:44:22;97373.48;;;9.75;51.05
76660;BME280;65579;45.534;6.212;2023-03-14T08:46:47;97381.96;;;10.13;51.01
76660;BME280;65579;45.534;6.212;2023-03-14T08:49:13;97378.65;;;9.96;52.10
76660;BME280;65579;45.534;6.212;2023-03-14T08:51:37;97375.79;;;10.11;51.89
76660;BME280;65579;45.534;6.212;2023-03-14T08:54:03;97379.73;;;9.85;51.98
76660;BME280;65579;45.534;6.212;2023-03-14T08:56:28;97381.82;;;10.76;50.75
76660;BME280;65579;45.534;6.212;2023-03-14T08:58:54;97388.59;;;10.71;50.72
76660;BME280;65579;45.534;6.212;2023-03-14T09:01:18;97393.45;;;9.84;52.00
76660;BME280;65579;45.534;6.212;2023-03-14T09:03:45;97401.72;;;9.89;51.46
76660;BME280;65579;45.534;6.212;2023-03-14T09:06:10;97407.86;;;10.07;51.27
76660;BME280;65579;45.534;6.212;2023-03-14T09:08:35;97412.43;;;9.83;51.46
76660;BME280;65579;45.534;6.212;2023-03-14T09:11:00;97415.17;;;10.16;51.22
76660;BME280;65579;45.534;6.212;2023-03-14T09:13:26;97415.00;;;10.35;51.58
76660;BME280;65579;45.534;6.212;2023-03-14T09:15:51;97416.32;;;9.81;51.81
76660;BME280;65579;45.534;6.212;2023-03-14T09:18:17;97417.42;;;9.92;51.57
76660;BME280;65579;45.534;6.212;2023-03-14T09:20:41;97423.68;;;9.82;51.85
76660;BME280;65579;45.534;6.212;2023-03-14T09:23:07;97425.78;;;10.15;50.89
76660;BME280;65579;45.534;6.212;2023-03-14T09:25:32;97435.68;;;10.29;51.31
76660;BME280;65579;45.534;6.212;2023-03-14T09:27:57;97441.43;;;10.97;50.32
76660;BME280;65579;45.534;6.212;2023-03-14T09:30:22;97449.56;;;10.52;49.95
76660;BME280;65579;45.534;6.212;2023-03-14T09:32:48;97451.60;;;10.66;50.97
76660;BME280;65579;45.534;6.212;2023-03-14T09:35:13;97458.76;;;10.44;50.74
76660;BME280;65579;45.534;6.212;2023-03-14T09:37:39;97464.24;;;10.29;50.80
76660;BME280;65579;45.534;6.212;2023-03-14T09:40:06;97465.77;;;10.01;51.78
76660;BME280;65579;45.534;6.212;2023-03-14T09:42:30;97466.59;;;10.31;51.75
76660;BME280;65579;45.534;6.212;2023-03-14T09:44:57;97466.25;;;10.70;50.66
76660;BME280;65579;45.534;6.212;2023-03-14T09:47:21;97469.49;;;10.13;51.77
76660;BME280;65579;45.534;6.212;2023-03-14T09:49:46;97476.88;;;10.46;50.24
76660;BME280;65579;45.534;6.212;2023-03-14T09:52:14;97488.32;;;11.03;47.99
76660;BME280;65579;45.534;6.212;2023-03-14T09:54:38;97499.34;;;10.58;48.91
76660;BME280;65579;45.534;6.212;2023-03-14T09:57:03;97504.78;;;9.99;49.85
76660;BME280;65579;45.534;6.212;2023-03-14T09:59:28;97504.91;;;10.59;48.59
76660;BME280;65579;45.534;6.212;2023-03-14T10:01:52;97516.70;;;9.82;50.03
76660;BME280;65579;45.534;6.212;2023-03-14T10:04:22;97524.76;;;10.10;50.69
76660;BME280;65579;45.534;6.212;2023-03-14T10:06:43;97531.35;;;10.59;49.35
76660;BME280;65579;45.534;6.212;2023-03-14T10:09:09;97540.37;;;10.09;49.93
76660;BME280;65579;45.534;6.212;2023-03-14T10:11:33;97549.04;;;10.06;50.49
76660;BME280;65579;45.534;6.212;2023-03-14T10:14:05;97557.35;;;10.07;51.14
76660;BME280;65579;45.534;6.212;2023-03-14T10:16:28;97562.28;;;10.01;51.22
76660;BME280;65579;45.534;6.212;2023-03-14T10:18:49;97567.20;;;10.57;50.00
76660;BME280;65579;45.534;6.212;2023-03-14T10:21:21;97568.24;;;10.44;49.80
76660;BME280;65579;45.534;6.212;2023-03-14T10:23:39;97573.67;;;10.40;50.77
76660;BME280;65579;45.534;6.212;2023-03-14T10:26:11;97584.99;;;10.44;50.73
76660;BME280;65579;45.534;6.212;2023-03-14T10:28:32;97595.65;;;10.21;50.77
76660;BME280;65579;45.534;6.212;2023-03-14T10:30:56;97592.11;;;10.59;49.81
76660;BME280;65579;45.534;6.212;2023-03-14T10:33:23;97594.96;;;10.86;49.39
76660;BME280;65579;45.534;6.212;2023-03-14T10:35:52;97602.13;;;10.42;49.86
76660;BME280;65579;45.534;6.212;2023-03-14T10:38:13;97611.94;;;10.63;50.27
76660;BME280;65579;45.534;6.212;2023-03-14T10:40:39;97609.88;;;10.94;49.34
76660;BME280;65579;45.534;6.212;2023-03-14T10:43:05;97616.30;;;10.94;49.85
76660;BME280;65579;45.534;6.212;2023-03-14T10:45:32;97616.30;;;10.75;50.43
76660;BME280;65579;45.534;6.212;2023-03-14T10:47:53;97624.04;;;11.02;49.65
76660;BME280;65579;45.534;6.212;2023-03-14T10:50:24;97624.66;;;11.37;48.92
76660;BME280;65579;45.534;6.212;2023-03-14T10:52:48;97619.44;;;11.01;49.24
76660;BME280;65579;45.534;6.212;2023-03-14T10:55:11;97610.63;;;11.05;49.67
76660;BME280;65579;45.534;6.212;2023-03-14T10:57:40;97606.26;;;11.47;49.74
76660;BME280;65579;45.534;6.212;2023-03-14T11:00:00;97626.02;;;10.49;50.82
76660;BME280;65579;45.534;6.212;2023-03-14T11:02:36;97643.26;;;10.53;50.15
76660;BME280;65579;45.534;6.212;2023-03-14T11:04:59;97654.75;;;11.90;48.11
76660;BME280;65579;45.534;6.212;2023-03-14T11:07:20;97687.09;;;11.12;49.79
76660;BME280;65579;45.534;6.212;2023-03-14T11:09:45;97692.65;;;10.56;50.83
76660;BME280;65579;45.534;6.212;2023-03-14T11:12:22;97705.11;;;8.97;55.17
76660;BME280;65579;45.534;6.212;2023-03-14T11:14:36;97710.92;;;8.66;56.78
76660;BME280;65579;45.534;6.212;2023-03-14T11:17:00;97714.16;;;8.00;58.97
76660;BME280;65579;45.534;6.212;2023-03-14T11:19:30;97709.96;;;8.02;58.26
76660;BME280;65579;45.534;6.212;2023-03-14T11:21:54;97703.90;;;7.43;59.01
76660;BME280;65579;45.534;6.212;2023-03-14T11:24:25;97697.70;;;7.98;58.26
76660;BME280;65579;45.534;6.212;2023-03-14T11:26:44;97692.99;;;7.50;59.07
76660;BME280;65579;45.534;6.212;2023-03-14T11:29:16;97711.62;;;7.64;57.85
76660;BME280;65579;45.534;6.212;2023-03-14T11:31:32;97715.77;;;7.49;56.26
76660;BME280;65579;45.534;6.212;2023-03-14T11:33:59;97717.73;;;7.48;54.43
76660;BME280;65579;45.534;6.212;2023-03-14T11:36:22;97726.42;;;7.68;54.78
76660;BME280;65579;45.534;6.212;2023-03-14T11:38:48;97736.57;;;8.29;56.21
76660;BME280;65579;45.534;6.212;2023-03-14T11:41:14;97740.03;;;8.32;54.63
76660;BME280;65579;45.534;6.212;2023-03-14T11:43:38;97750.78;;;8.07;54.46
76660;BME280;65579;45.534;6.212;2023-03-14T11:46:07;97755.77;;;8.77;53.75
76660;BME280;65579;45.534;6.212;2023-03-14T11:48:36;97756.41;;;9.17;50.61
76660;BME280;65579;45.534;6.212;2023-03-14T11:50:54;97758.77;;;9.02;51.54
76660;BME280;65579;45.534;6.212;2023-03-14T11:53:20;97760.83;;;9.53;51.12
76660;BME280;65579;45.534;6.212;2023-03-14T11:55:43;97756.18;;;9.21;50.66
76660;BME280;65579;45.534;6.212;2023-03-14T11:58:14;97759.39;;;9.57;49.82
76660;BME280;65579;45.534;6.212;2023-03-14T12:00:32;97752.27;;;9.74;49.17
76660;BME280;65579;45.534;6.212;2023-03-14T12:03:01;97758.01;;;10.20;49.19
76660;BME280;65579;45.534;6.212;2023-03-14T12:05:33;97761.28;;;10.05;48.43
76660;BME280;65579;45.534;6.212;2023-03-14T12:10:14;97761.65;;;11.35;44.87
76660;BME280;65579;45.534;6.212;2023-03-14T12:12:39;97762.77;;;10.41;45.90
76660;BME280;65579;45.534;6.212;2023-03-14T12:15:05;97764.10;;;10.86;46.53
76660;BME280;65579;45.534;6.212;2023-03-14T12:17:35;97764.46;;;10.60;46.62
76660;BME280;65579;45.534;6.212;2023-03-14T12:20:01;97765.51;;;11.40;46.12
76660;BME280;65579;45.534;6.212;2023-03-14T12:22:24;97762.55;;;11.81;43.63
76660;BME280;65579;45.534;6.212;2023-03-14T12:24:48;97764.66;;;11.32;44.70
76660;BME280;65579;45.534;6.212;2023-03-14T12:27:13;97762.00;;;10.70;46.97
76660;BME280;65579;45.534;6.212;2023-03-14T12:32:20;97750.52;;;11.87;45.04
76660;BME280;65579;45.534;6.212;2023-03-14T12:34:31;97752.59;;;11.35;44.66
76660;BME280;65579;45.534;6.212;2023-03-14T12:36:57;97756.90;;;11.53;44.48
76660;BME280;65579;45.534;6.212;2023-03-14T12:39:21;97754.79;;;12.31;42.79
76660;BME280;65579;45.534;6.212;2023-03-14T12:41:44;97748.16;;;12.35;43.57
76660;BME280;65579;45.534;6.212;2023-03-14T12:46:32;97738.70;;;13.81;39.34
76660;BME280;65579;45.534;6.212;2023-03-14T12:49:03;97742.71;;;13.36;38.72
76660;BME280;65579;45.534;6.212;2023-03-14T12:51:28;97747.03;;;12.24;40.00
76660;BME280;65579;45.534;6.212;2023-03-14T12:53:57;97743.72;;;12.52;40.26
76660;BME280;65579;45.534;6.212;2023-03-14T12:56:23;97740.59;;;13.74;39.91
76660;BME280;65579;45.534;6.212;2023-03-14T12:58:44;97737.70;;;13.93;40.36
76660;BME280;65579;45.534;6.212;2023-03-14T13:01:05;97735.44;;;14.10;39.20
76660;BME280;65579;45.534;6.212;2023-03-14T13:03:38;97733.14;;;14.00;38.89
76660;BME280;65579;45.534;6.212;2023-03-14T13:05:55;97727.15;;;14.05;37.53